sensor_id;sensor_type;location;lat;lon;timestamp;P1;durP1;ratioP1;P2;durP2;ratioP2
20954;SDS011;10636;19.390;-99.256;2022-11-20T14:24:11;34.00;;;31.20;;
20954;SDS011;10636;19.390;-99.256;2022-11-20T14:26:41;34.50;;;31.60;;
20954;SDS011;10636;19.390;-99.256;2022-11-20T14:29:16;32.20;;;29.60;;
20954;SDS011;10636;19.390;-99.256;2022-11-20T14:31:46;23.33;;;20.98;;
20954;SDS011;10636;19.390;-99.256;2022-11-20T14:34:20;23.25;;;20.98;;
20954;SDS011;10636;19.390;-99.256;2022-11-20T14:36:52;23.05;;;20.75;;
20954;SDS011;10636;19.390;-99.256;2022-11-20T14:39:30;24.10;;;21.80;;
20954;SDS011;10636;19.390;-99.256;2022-11-20T14:42:01;25.30;;;22.80;;
20954;SDS011;10636;19.390;-99.256;2022-11-20T14:44:42;25.23;;;22.83;;
20954;SDS011;10636;19.390;-99.256;2022-11-20T14:47:12;27.05;;;24.25;;
20954;SDS011;10636;19.390;-99.256;2022-11-20T14:49:44;28.35;;;25.45;;
20954;SDS011;10636;19.390;-99.256;2022-11-20T14:52:15;28.83;;;25.88;;
20954;SDS011;10636;19.390;-99.256;2022-11-20T14:54:46;28.73;;;25.92;;
20954;SDS011;10636;19.390;-99.256;2022-11-20T14:57:20;32.10;;;28.92;;
20954;SDS011;10636;19.390;-99.256;2022-11-20T15:00:02;45.30;;;41.70;;
20954;SDS011;10636;19.390;-99.256;2022-11-20T15:02:33;47.33;;;43.78;;
20954;SDS011;10636;19.390;-99.256;2022-11-20T15:05:06;41.90;;;38.47;;
20954;SDS011;10636;19.390;-99.256;2022-11-20T15:07:36;45.55;;;42.05;;
20954;SDS011;10636;19.390;-99.256;2022-11-20T15:10:13;41.97;;;38.58;;
20954;SDS011;10636;19.390;-99.256;2022-11-20T15:12:49;39.90;;;36.53;;
20954;SDS011;10636;19.390;-99.256;2022-11-20T15:15:20;42.22;;;38.70;;
20954;SDS011;10636;19.390;-99.256;2022-11-20T15:17:52;42.05;;;38.63;;
20954;SDS011;10636;19.390;-99.256;2022-11-20T15:20:22;42.28;;;38.78;;
20954;SDS011;10636;19.390;-99.256;2022-11-20T15:22:56;44.17;;;40.58;;
20954;SDS011;10636;19.390;-99.256;2022-11-20T15:25:27;44.45;;;40.85;;
20954;SDS011;10636;19.390;-99.256;2022-11-20T15:27:56;43.55;;;39.95;;
20954;SDS011;10636;19.390;-99.256;2022-11-20T15:30:25;44.10;;;40.50;;
20954;SDS011;10636;19.390;-99.256;2022-11-20T15:32:54;43.97;;;40.17;;
20954;SDS011;10636;19.390;-99.256;2022-11-20T15:35:22;47.28;;;43.47;;
20954;SDS011;10636;19.390;-99.256;2022-11-20T15:37:51;30.25;;;26.95;;
20954;SDS011;10636;19.390;-99.256;2022-11-20T15:40:20;33.08;;;26.98;;
20954;SDS011;10636;19.390;-99.256;2022-11-20T15:42:51;31.33;;;27.20;;
20954;SDS011;10636;19.390;-99.256;2022-11-20T15:45:34;45.42;;;41.75;;
20954;SDS011;10636;19.390;-99.256;2022-11-20T15:48:08;44.08;;;40.60;;
20954;SDS011;10636;19.390;-99.256;2022-11-20T15:50:42;44.67;;;41.00;;
20954;SDS011;10636;19.390;-99.256;2022-11-20T15:53:17;27.08;;;23.80;;
20954;SDS011;10636;19.390;-99.256;2022-11-20T15:55:46;28.55;;;23.95;;
20954;SDS011;10636;19.390;-99.256;2022-11-20T15:58:16;46.17;;;42.70;;
20954;SDS011;10636;19.390;-99.256;2022-11-20T16:00:45;44.72;;;41.22;;
20954;SDS011;10636;19.390;-99.256;2022-11-20T16:03:14;46.55;;;42.95;;
20954;SDS011;10636;19.390;-99.256;2022-11-20T16:05:43;46.78;;;43.28;;
20954;SDS011;10636;19.390;-99.256;2022-11-20T16:08:12;26.88;;;23.65;;
20954;SDS011;10636;19.390;-99.256;2022-11-20T16:10:41;27.33;;;23.50;;
20954;SDS011;10636;19.390;-99.256;2022-11-20T16:13:13;43.42;;;40.22;;
20954;SDS011;10636;19.390;-99.256;2022-11-20T16:16:02;45.20;;;41.80;;
20954;SDS011;10636;19.390;-99.256;2022-11-20T16:18:33;43.95;;;40.63;;
20954;SDS011;10636;19.390;-99.256;2022-11-20T16:21:02;44.92;;;41.72;;
20954;SDS011;10636;19.390;-99.256;2022-11-20T16:23:31;42.88;;;39.75;;
20954;SDS011;10636;19.390;-99.256;2022-11-20T16:26:00;23.25;;;20.75;;
20954;SDS011;10636;19.390;-99.256;2022-11-20T16:28:37;23.55;;;19.67;;
20954;SDS011;10636;19.390;-99.256;2022-11-20T16:31:12;21.83;;;19.48;;
20954;SDS011;10636;19.390;-99.256;2022-11-20T16:33:42;40.88;;;37.97;;
20954;SDS011;10636;19.390;-99.256;2022-11-20T16:36:16;43.30;;;40.33;;
20954;SDS011;10636;19.390;-99.256;2022-11-20T16:38:45;23.13;;;20.58;;
20954;SDS011;10636;19.390;-99.256;2022-11-20T16:41:14;44.40;;;41.40;;
20954;SDS011;10636;19.390;-99.256;2022-11-20T16:43:46;45.97;;;42.65;;
20954;SDS011;10636;19.390;-99.256;2022-11-20T16:46:18;41.75;;;38.80;;
20954;SDS011;10636;19.390;-99.256;2022-11-20T16:48:52;21.88;;;19.58;;
20954;SDS011;10636;19.390;-99.256;2022-11-20T16:51:21;22.67;;;20.08;;
20954;SDS011;10636;19.390;-99.256;2022-11-20T16:53:51;21.00;;;18.80;;
20954;SDS011;10636;19.390;-99.256;2022-11-20T16:56:20;42.40;;;39.47;;
20954;SDS011;10636;19.390;-99.256;2022-11-20T16:58:52;20.67;;;18.52;;
20954;SDS011;10636;19.390;-99.256;2022-11-20T17:01:23;19.38;;;17.27;;
20954;SDS011;10636;19.390;-99.256;2022-11-20T17:03:53;37.50;;;34.90;;
20954;SDS011;10636;19.390;-99.256;2022-11-20T17:06:24;19.45;;;16.70;;
20954;SDS011;10636;19.390;-99.256;2022-11-20T17:08:54;21.45;;;19.23;;
20954;SDS011;10636;19.390;-99.256;2022-11-20T17:11:24;22.98;;;18.98;;
20954;SDS011;10636;19.390;-99.256;2022-11-20T17:13:53;36.15;;;33.47;;
20954;SDS011;10636;19.390;-99.256;2022-11-20T17:16:26;36.92;;;34.20;;
20954;SDS011;10636;19.390;-99.256;2022-11-20T17:18:56;38.50;;;35.72;;
20954;SDS011;10636;19.390;-99.256;2022-11-20T17:21:25;30.50;;;27.92;;
20954;SDS011;10636;19.390;-99.256;2022-11-20T17:23:55;23.77;;;20.42;;
20954;SDS011;10636;19.390;-99.256;2022-11-20T17:26:26;23.27;;;20.77;;
20954;SDS011;10636;19.390;-99.256;2022-11-20T17:28:56;23.92;;;20.98;;
20954;SDS011;10636;19.390;-99.256;2022-11-20T17:31:28;23.73;;;20.98;;
20954;SDS011;10636;19.390;-99.256;2022-11-20T17:33:57;26.70;;;21.58;;
20954;SDS011;10636;19.390;-99.256;2022-11-20T17:36:27;25.30;;;22.48;;
20954;SDS011;10636;19.390;-99.256;2022-11-20T17:38:57;28.95;;;26.33;;
20954;SDS011;10636;19.390;-99.256;2022-11-20T17:41:26;26.40;;;22.45;;
20954;SDS011;10636;19.390;-99.256;2022-11-20T17:43:56;27.90;;;23.05;;
20954;SDS011;10636;19.390;-99.256;2022-11-20T17:46:28;31.35;;;28.45;;
20954;SDS011;10636;19.390;-99.256;2022-11-20T17:48:58;26.85;;;23.95;;
20954;SDS011;10636;19.390;-99.256;2022-11-20T17:51:28;32.53;;;29.45;;
20954;SDS011;10636;19.390;-99.256;2022-11-20T17:54:00;32.85;;;29.88;;
20954;SDS011;10636;19.390;-99.256;2022-11-20T17:56:30;27.63;;;24.55;;
20954;SDS011;10636;19.390;-99.256;2022-11-20T17:59:16;31.35;;;27.42;;
20954;SDS011;10636;19.390;-99.256;2022-11-20T18:01:47;37.13;;;33.78;;
20954;SDS011;10636;19.390;-99.256;2022-11-20T18:04:16;31.58;;;27.23;;
20954;SDS011;10636;19.390;-99.256;2022-11-20T18:06:45;34.58;;;27.80;;
20954;SDS011;10636;19.390;-99.256;2022-11-20T18:09:14;34.08;;;28.92;;
20954;SDS011;10636;19.390;-99.256;2022-11-20T18:11:43;34.08;;;28.52;;
20954;SDS011;10636;19.390;-99.256;2022-11-20T18:14:13;36.63;;;33.15;;
20954;SDS011;10636;19.390;-99.256;2022-11-20T18:17:04;38.05;;;34.35;;
20954;SDS011;10636;19.390;-99.256;2022-11-20T18:19:34;34.25;;;28.33;;
20954;SDS011;10636;19.390;-99.256;2022-11-20T18:22:05;32.45;;;28.15;;
20954;SDS011;10636;19.390;-99.256;2022-11-20T18:24:34;33.72;;;29.38;;
20954;SDS011;10636;19.390;-99.256;2022-11-20T18:27:04;40.83;;;37.00;;
20954;SDS011;10636;19.390;-99.256;2022-11-20T18:29:34;35.55;;;29.42;;
20954;SDS011;10636;19.390;-99.256;2022-11-20T18:32:05;36.85;;;30.17;;
20954;SDS011;10636;19.390;-99.256;2022-11-20T18:34:33;40.65;;;36.75;;
20954;SDS011;10636;19.390;-99.256;2022-11-20T18:37:03;39.80;;;35.88;;
20954;SDS011;10636;19.390;-99.256;2022-11-20T18:39:34;34.20;;;29.08;;
20954;SDS011;10636;19.390;-99.256;2022-11-20T18:42:08;42.35;;;38.47;;
20954;SDS011;10636;19.390;-99.256;2022-11-20T18:44:55;40.92;;;36.97;;
20954;SDS011;10636;19.390;-99.256;2022-11-20T18:47:27;39.92;;;36.08;;
20954;SDS011;10636;19.390;-99.256;2022-11-20T18:49:59;38.72;;;35.00;;
20954;SDS011;10636;19.390;-99.256;2022-11-20T18:52:29;38.47;;;34.60;;
20954;SDS011;10636;19.390;-99.256;2022-11-20T18:54:59;40.80;;;36.50;;
20954;SDS011;10636;19.390;-99.256;2022-11-20T18:57:29;42.78;;;38.75;;
20954;SDS011;10636;19.390;-99.256;2022-11-20T18:59:58;38.97;;;35.13;;
20954;SDS011;10636;19.390;-99.256;2022-11-20T19:02:29;41.53;;;37.45;;
20954;SDS011;10636;19.390;-99.256;2022-11-20T19:04:57;41.45;;;37.38;;
20954;SDS011;10636;19.390;-99.256;2022-11-20T19:07:26;41.67;;;37.63;;
20954;SDS011;10636;19.390;-99.256;2022-11-20T19:09:55;40.10;;;36.15;;
20954;SDS011;10636;19.390;-99.256;2022-11-20T19:12:24;39.45;;;35.53;;
20954;SDS011;10636;19.390;-99.256;2022-11-20T19:14:53;40.35;;;36.47;;
20954;SDS011;10636;19.390;-99.256;2022-11-20T19:17:22;39.67;;;35.67;;
20954;SDS011;10636;19.390;-99.256;2022-11-20T19:19:52;38.75;;;34.85;;
20954;SDS011;10636;19.390;-99.256;2022-11-20T19:22:21;39.83;;;35.75;;
20954;SDS011;10636;19.390;-99.256;2022-11-20T19:24:50;40.47;;;36.28;;
20954;SDS011;10636;19.390;-99.256;2022-11-20T19:27:19;38.50;;;31.50;;
20954;SDS011;10636;19.390;-99.256;2022-11-20T19:29:48;37.42;;;31.33;;
20954;SDS011;10636;19.390;-99.256;2022-11-20T19:32:17;40.78;;;36.55;;
20954;SDS011;10636;19.390;-99.256;2022-11-20T19:34:46;40.55;;;36.63;;
20954;SDS011;10636;19.390;-99.256;2022-11-20T19:37:16;37.70;;;30.67;;
20954;SDS011;10636;19.390;-99.256;2022-11-20T19:39:45;37.80;;;29.52;;
20954;SDS011;10636;19.390;-99.256;2022-11-20T19:42:14;38.17;;;31.33;;
20954;SDS011;10636;19.390;-99.256;2022-11-20T19:44:43;41.35;;;37.05;;
20954;SDS011;10636;19.390;-99.256;2022-11-20T19:47:11;39.80;;;35.72;;
20954;SDS011;10636;19.390;-99.256;2022-11-20T19:49:40;36.05;;;29.55;;
20954;SDS011;10636;19.390;-99.256;2022-11-20T19:52:09;39.90;;;35.83;;
20954;SDS011;10636;19.390;-99.256;2022-11-20T19:54:40;39.72;;;35.65;;
20954;SDS011;10636;19.390;-99.256;2022-11-20T19:57:09;40.90;;;36.70;;
20954;SDS011;10636;19.390;-99.256;2022-11-20T19:59:38;39.85;;;35.63;;
20954;SDS011;10636;19.390;-99.256;2022-11-20T20:02:08;40.63;;;32.63;;
20954;SDS011;10636;19.390;-99.256;2022-11-20T20:04:38;39.85;;;35.75;;
20954;SDS011;10636;19.390;-99.256;2022-11-20T20:07:06;41.38;;;36.97;;
20954;SDS011;10636;19.390;-99.256;2022-11-20T20:09:35;40.25;;;36.05;;
20954;SDS011;10636;19.390;-99.256;2022-11-20T20:12:06;39.72;;;32.47;;
20954;SDS011;10636;19.390;-99.256;2022-11-20T20:14:35;39.28;;;32.17;;
20954;SDS011;10636;19.390;-99.256;2022-11-20T20:17:03;40.22;;;31.77;;
20954;SDS011;10636;19.390;-99.256;2022-11-20T20:19:32;39.42;;;32.42;;
20954;SDS011;10636;19.390;-99.256;2022-11-20T20:22:01;40.15;;;35.92;;
20954;SDS011;10636;19.390;-99.256;2022-11-20T20:24:30;40.20;;;32.47;;
20954;SDS011;10636;19.390;-99.256;2022-11-20T20:26:59;42.80;;;32.88;;
20954;SDS011;10636;19.390;-99.256;2022-11-20T20:29:29;42.50;;;33.75;;
20954;SDS011;10636;19.390;-99.256;2022-11-20T20:31:58;51.17;;;45.35;;
20954;SDS011;10636;19.390;-99.256;2022-11-20T20:34:27;53.42;;;46.50;;
20954;SDS011;10636;19.390;-99.256;2022-11-20T20:36:56;79.20;;;51.92;;
20954;SDS011;10636;19.390;-99.256;2022-11-20T20:39:25;57.85;;;43.33;;
20954;SDS011;10636;19.390;-99.256;2022-11-20T20:41:54;77.00;;;68.68;;
20954;SDS011;10636;19.390;-99.256;2022-11-20T20:44:23;66.78;;;59.85;;
20954;SDS011;10636;19.390;-99.256;2022-11-20T20:47:22;65.32;;;58.28;;
20954;SDS011;10636;19.390;-99.256;2022-11-20T20:49:51;55.78;;;44.58;;
20954;SDS011;10636;19.390;-99.256;2022-11-20T20:52:20;54.72;;;49.00;;
20954;SDS011;10636;19.390;-99.256;2022-11-20T20:54:52;49.35;;;37.42;;
20954;SDS011;10636;19.390;-99.256;2022-11-20T20:57:21;47.10;;;38.15;;
20954;SDS011;10636;19.390;-99.256;2022-11-20T20:59:50;45.20;;;35.83;;
20954;SDS011;10636;19.390;-99.256;2022-11-20T21:02:20;47.72;;;36.60;;
20954;SDS011;10636;19.390;-99.256;2022-11-20T21:04:50;45.92;;;41.17;;
20954;SDS011;10636;19.390;-99.256;2022-11-20T21:07:19;47.55;;;42.55;;
20954;SDS011;10636;19.390;-99.256;2022-11-20T21:09:49;46.00;;;41.20;;
20954;SDS011;10636;19.390;-99.256;2022-11-20T21:12:17;45.55;;;40.78;;
20954;SDS011;10636;19.390;-99.256;2022-11-20T21:14:46;47.88;;;42.55;;
20954;SDS011;10636;19.390;-99.256;2022-11-20T21:17:15;45.92;;;41.17;;
20954;SDS011;10636;19.390;-99.256;2022-11-20T21:19:45;46.70;;;41.95;;
20954;SDS011;10636;19.390;-99.256;2022-11-20T21:22:14;46.97;;;42.13;;
20954;SDS011;10636;19.390;-99.256;2022-11-20T21:24:41;43.75;;;34.78;;
20954;SDS011;10636;19.390;-99.256;2022-11-20T21:27:10;45.38;;;35.40;;
20954;SDS011;10636;19.390;-99.256;2022-11-20T21:29:39;45.13;;;35.72;;
20954;SDS011;10636;19.390;-99.256;2022-11-20T21:32:08;48.42;;;43.58;;
20954;SDS011;10636;19.390;-99.256;2022-11-20T21:34:37;49.50;;;44.30;;
20954;SDS011;10636;19.390;-99.256;2022-11-20T21:37:08;49.17;;;44.03;;
20954;SDS011;10636;19.390;-99.256;2022-11-20T21:39:36;54.63;;;49.22;;
20954;SDS011;10636;19.390;-99.256;2022-11-20T21:42:15;60.00;;;54.38;;
20954;SDS011;10636;19.390;-99.256;2022-11-20T21:44:44;52.72;;;40.38;;
20954;SDS011;10636;19.390;-99.256;2022-11-20T21:47:13;69.07;;;62.78;;
20954;SDS011;10636;19.390;-99.256;2022-11-20T21:49:43;49.80;;;39.25;;
20954;SDS011;10636;19.390;-99.256;2022-11-20T21:52:13;60.95;;;55.42;;
20954;SDS011;10636;19.390;-99.256;2022-11-20T21:54:42;64.60;;;58.67;;
20954;SDS011;10636;19.390;-99.256;2022-11-20T21:57:11;63.10;;;57.42;;
20954;SDS011;10636;19.390;-99.256;2022-11-20T21:59:40;59.90;;;54.72;;
20954;SDS011;10636;19.390;-99.256;2022-11-20T22:02:10;60.95;;;55.45;;
20954;SDS011;10636;19.390;-99.256;2022-11-20T22:04:40;60.00;;;54.80;;
20954;SDS011;10636;19.390;-99.256;2022-11-20T22:07:09;61.25;;;55.90;;
20954;SDS011;10636;19.390;-99.256;2022-11-20T22:09:39;58.97;;;53.85;;
20954;SDS011;10636;19.390;-99.256;2022-11-20T22:12:09;62.22;;;56.92;;
20954;SDS011;10636;19.390;-99.256;2022-11-20T22:14:38;44.83;;;36.47;;
20954;SDS011;10636;19.390;-99.256;2022-11-20T22:17:09;43.38;;;35.60;;
20954;SDS011;10636;19.390;-99.256;2022-11-20T22:19:40;62.53;;;57.33;;
20954;SDS011;10636;19.390;-99.256;2022-11-20T22:22:09;62.00;;;56.90;;
20954;SDS011;10636;19.390;-99.256;2022-11-20T22:24:40;44.35;;;34.97;;
20954;SDS011;10636;19.390;-99.256;2022-11-20T22:27:09;43.65;;;35.95;;
20954;SDS011;10636;19.390;-99.256;2022-11-20T22:29:38;60.13;;;55.05;;
20954;SDS011;10636;19.390;-99.256;2022-11-20T22:32:07;58.45;;;53.38;;
20954;SDS011;10636;19.390;-99.256;2022-11-20T22:34:35;44.25;;;36.03;;
20954;SDS011;10636;19.390;-99.256;2022-11-20T22:37:04;62.35;;;57.05;;
20954;SDS011;10636;19.390;-99.256;2022-11-20T22:39:33;41.78;;;34.50;;
20954;SDS011;10636;19.390;-99.256;2022-11-20T22:42:04;42.65;;;35.88;;
20954;SDS011;10636;19.390;-99.256;2022-11-20T22:44:33;42.67;;;34.65;;
20954;SDS011;10636;19.390;-99.256;2022-11-20T22:47:02;60.42;;;55.50;;
20954;SDS011;10636;19.390;-99.256;2022-11-20T22:49:31;61.05;;;55.95;;
20954;SDS011;10636;19.390;-99.256;2022-11-20T22:51:59;58.60;;;53.60;;
20954;SDS011;10636;19.390;-99.256;2022-11-20T22:54:28;56.03;;;51.15;;
20954;SDS011;10636;19.390;-99.256;2022-11-20T22:56:57;54.97;;;50.20;;
20954;SDS011;10636;19.390;-99.256;2022-11-20T22:59:28;54.55;;;49.67;;
20954;SDS011;10636;19.390;-99.256;2022-11-20T23:01:57;43.95;;;34.22;;
20954;SDS011;10636;19.390;-99.256;2022-11-20T23:04:26;40.22;;;33.00;;
20954;SDS011;10636;19.390;-99.256;2022-11-20T23:06:55;40.83;;;32.05;;
20954;SDS011;10636;19.390;-99.256;2022-11-20T23:09:23;40.50;;;33.67;;
20954;SDS011;10636;19.390;-99.256;2022-11-20T23:11:52;39.30;;;32.70;;
20954;SDS011;10636;19.390;-99.256;2022-11-20T23:14:21;40.78;;;32.28;;
20954;SDS011;10636;19.390;-99.256;2022-11-20T23:16:52;43.38;;;33.65;;
20954;SDS011;10636;19.390;-99.256;2022-11-20T23:19:20;48.22;;;43.78;;
20954;SDS011;10636;19.390;-99.256;2022-11-20T23:21:49;47.13;;;42.78;;
20954;SDS011;10636;19.390;-99.256;2022-11-20T23:24:18;48.17;;;43.67;;
20954;SDS011;10636;19.390;-99.256;2022-11-20T23:26:47;53.85;;;48.97;;
20954;SDS011;10636;19.390;-99.256;2022-11-20T23:29:15;47.05;;;42.83;;
20954;SDS011;10636;19.390;-99.256;2022-11-20T23:31:44;44.75;;;40.58;;
20954;SDS011;10636;19.390;-99.256;2022-11-20T23:34:15;47.03;;;42.60;;
20954;SDS011;10636;19.390;-99.256;2022-11-20T23:36:44;37.67;;;32.03;;
20954;SDS011;10636;19.390;-99.256;2022-11-20T23:39:13;38.15;;;31.20;;
20954;SDS011;10636;19.390;-99.256;2022-11-20T23:41:41;48.00;;;43.80;;
20954;SDS011;10636;19.390;-99.256;2022-11-20T23:44:10;43.10;;;39.10;;
20954;SDS011;10636;19.390;-99.256;2022-11-20T23:46:39;36.08;;;30.77;;
20954;SDS011;10636;19.390;-99.256;2022-11-20T23:49:08;46.20;;;42.20;;
20954;SDS011;10636;19.390;-99.256;2022-11-20T23:51:38;46.42;;;42.35;;
20954;SDS011;10636;19.390;-99.256;2022-11-20T23:54:07;47.75;;;43.55;;
20954;SDS011;10636;19.390;-99.256;2022-11-20T23:56:36;54.90;;;50.67;;
20954;SDS011;10636;19.390;-99.256;2022-11-20T23:59:05;49.10;;;44.95;;
